地図

経路データ

SID SEASON NUMBER BASIN SUBBASIN NAME ISO_TIME NATURE LAT LON WMO_WIND WMO_PRES WMO_AGENCY TRACK_TYPE DIST2LAND LANDFALL IFLAG USA_AGENCY USA_ATCF_ID USA_LAT USA_LON USA_RECORD USA_STATUS USA_WIND USA_PRES USA_SSHS USA_R34_NE USA_R34_SE USA_R34_SW USA_R34_NW USA_R50_NE USA_R50_SE USA_R50_SW USA_R50_NW USA_R64_NE USA_R64_SE USA_R64_SW USA_R64_NW USA_POCI USA_ROCI USA_RMW USA_EYE TOKYO_LAT TOKYO_LON TOKYO_GRADE TOKYO_WIND TOKYO_PRES TOKYO_R50_DIR TOKYO_R50_LONG TOKYO_R50_SHORT TOKYO_R30_DIR TOKYO_R30_LONG TOKYO_R30_SHORT TOKYO_LAND CMA_LAT CMA_LON CMA_CAT CMA_WIND CMA_PRES HKO_LAT HKO_LON HKO_CAT HKO_WIND HKO_PRES NEWDELHI_LAT NEWDELHI_LON NEWDELHI_GRADE NEWDELHI_WIND NEWDELHI_PRES NEWDELHI_CI NEWDELHI_DP NEWDELHI_POCI REUNION_LAT REUNION_LON REUNION_TYPE REUNION_WIND REUNION_PRES REUNION_TNUM REUNION_CI REUNION_RMW REUNION_R34_NE REUNION_R34_SE REUNION_R34_SW REUNION_R34_NW REUNION_R50_NE REUNION_R50_SE REUNION_R50_SW REUNION_R50_NW REUNION_R64_NE REUNION_R64_SE REUNION_R64_SW REUNION_R64_NW BOM_LAT BOM_LON BOM_TYPE BOM_WIND BOM_PRES BOM_TNUM BOM_CI BOM_RMW BOM_R34_NE BOM_R34_SE BOM_R34_SW BOM_R34_NW BOM_R50_NE BOM_R50_SE BOM_R50_SW BOM_R50_NW BOM_R64_NE BOM_R64_SE BOM_R64_SW BOM_R64_NW BOM_ROCI BOM_POCI BOM_EYE BOM_POS_METHOD BOM_PRES_METHOD NADI_LAT NADI_LON NADI_CAT NADI_WIND NADI_PRES WELLINGTON_LAT WELLINGTON_LON WELLINGTON_WIND WELLINGTON_PRES DS824_LAT DS824_LON DS824_STAGE DS824_WIND DS824_PRES TD9636_LAT TD9636_LON TD9636_STAGE TD9636_WIND TD9636_PRES TD9635_LAT TD9635_LON TD9635_WIND TD9635_PRES TD9635_ROCI NEUMANN_LAT NEUMANN_LON NEUMANN_CLASS NEUMANN_WIND NEUMANN_PRES MLC_LAT MLC_LON MLC_CLASS MLC_WIND MLC_PRES USA_GUST BOM_GUST BOM_GUST_PER REUNION_GUST REUNION_GUST_PER USA_SEAHGT USA_SEARAD_NE USA_SEARAD_SE USA_SEARAD_SW USA_SEARAD_NW STORM_SPEED STORM_DIR
1980245N16322 1980 69 NA NA GEORGES 1980-09-01 00:00:00 TS 15.6000 -38.0000 30 1010 hurdat_atl main 1928 1878 O_____________ hurdat_atl AL091980 15.6000 -38.0000 TD 30 1010 -1 14 282
1980245N16322 1980 69 NA NA GEORGES 1980-09-01 03:00:00 TS 15.7429 -38.6973 main 1878 1838 P_____________ AL091980 15.7429 -38.6973 TD 30 1010 -1 14 283
1980245N16322 1980 69 NA NA GEORGES 1980-09-01 06:00:00 TS 15.9000 -39.4000 30 1010 hurdat_atl main 1838 1800 O_____________ hurdat_atl AL091980 15.9000 -39.4000 TD 30 1010 -1 14 284
1980245N16322 1980 69 NA NA GEORGES 1980-09-01 09:00:00 TS 16.0848 -40.1076 main 1801 1765 P_____________ AL091980 16.0848 -40.1076 TD 30 1010 -1 14 287
1980245N16322 1980 69 NA NA GEORGES 1980-09-01 12:00:00 TS 16.3000 -40.8000 30 1010 hurdat_atl main 1767 1742 O_____________ hurdat_atl AL091980 16.3000 -40.8000 TD 30 1010 -1 14 290
1980245N16322 1980 69 NA NA GEORGES 1980-09-01 15:00:00 TS 16.5420 -41.4352 main 1742 1722 P_____________ AL091980 16.5420 -41.4352 TD 30 1010 -1 13 292
1980245N16322 1980 69 NA NA GEORGES 1980-09-01 18:00:00 TS 16.8000 -42.1000 30 1010 hurdat_atl main 1722 1697 O_____________ hurdat_atl AL091980 16.8000 -42.1000 TD 30 1010 -1 15 291
1980245N16322 1980 69 NA NA GEORGES 1980-09-01 21:00:00 TS 17.0720 -42.8474 main 1707 1669 P_____________ AL091980 17.0720 -42.8474 TD 30 1010 -1 16 288
1980245N16322 1980 69 NA NA GEORGES 1980-09-02 00:00:00 TS 17.3000 -43.7000 30 1010 hurdat_atl main 1666 1620 O_____________ hurdat_atl AL091980 17.3000 -43.7000 TD 30 1010 -1 17 282
1980245N16322 1980 69 NA NA GEORGES 1980-09-02 03:00:00 TS 17.4219 -44.6405 main 1620 1574 P_____________ AL091980 17.4219 -44.6405 TD 30 1010 -1 19 276
1980245N16322 1980 69 NA NA GEORGES 1980-09-02 06:00:00 TS 17.5000 -45.7000 30 1010 hurdat_atl main 1568 1524 O_____________ hurdat_atl AL091980 17.5000 -45.7000 TD 30 1010 -1 22 275
1980245N16322 1980 69 NA NA GEORGES 1980-09-02 09:00:00 TS 17.6076 -46.8849 main 1519 1483 P_____________ AL091980 17.6076 -46.8849 TD 30 1010 -1 23 275
1980245N16322 1980 69 NA NA GEORGES 1980-09-02 12:00:00 TS 17.7000 -48.1000 30 1010 hurdat_atl main 1478 1437 O_____________ hurdat_atl AL091980 17.7000 -48.1000 TD 30 1010 -1 22 274
1980245N16322 1980 69 NA NA GEORGES 1980-09-02 15:00:00 TS 17.7568 -49.2227 main 1439 1401 P_____________ AL091980 17.7568 -49.2227 TD 30 1010 -1 21 273
1980245N16322 1980 69 NA NA GEORGES 1980-09-02 18:00:00 TS 17.8000 -50.3000 30 1010 hurdat_atl main 1398 1312 O_____________ hurdat_atl AL091980 17.8000 -50.3000 TD 30 1010 -1 20 273
1980245N16322 1980 69 NA NA GEORGES 1980-09-02 21:00:00 TS 17.8493 -51.3576 main 1304 1236 P_____________ AL091980 17.8493 -51.3576 TD 30 1010 -1 20 273
1980245N16322 1980 69 NA NA GEORGES 1980-09-03 00:00:00 TS 17.9000 -52.4000 30 1010 hurdat_atl main 1227 1148 O_____________ hurdat_atl AL091980 17.9000 -52.4000 TD 30 1010 -1 20 272
1980245N16322 1980 69 NA NA GEORGES 1980-09-03 03:00:00 TS 17.9116 -53.4284 main 1148 1083 P_____________ AL091980 17.9116 -53.4284 TD 30 1010 -1 20 273
1980245N16322 1980 69 NA NA GEORGES 1980-09-03 06:00:00 TS 18.0000 -54.5000 30 1010 hurdat_atl main 1076 1021 O_____________ hurdat_atl AL091980 18.0000 -54.5000 TD 30 1010 -1 22 278
1980245N16322 1980 69 NA NA GEORGES 1980-09-03 09:00:00 TS 18.2251 -55.7002 main 1015 928 P_____________ AL091980 18.2251 -55.7002 TD 30 1010 -1 24 285
1980245N16322 1980 69 NA NA GEORGES 1980-09-03 12:00:00 TS 18.6000 -56.9000 30 1010 hurdat_atl main 917 813 O_____________ hurdat_atl AL091980 18.6000 -56.9000 TD 30 1010 -1 23 292
1980245N16322 1980 69 NA NA GEORGES 1980-09-03 15:00:00 TS 19.0967 -57.9803 main 804 717 P_____________ AL091980 19.0967 -57.9803 TD 27 1010 -1 23 299
1980245N16322 1980 69 NA NA GEORGES 1980-09-03 18:00:00 TS 19.7000 -59.0000 25 1011 hurdat_atl main 708 624 O_____________ hurdat_atl AL091980 19.7000 -59.0000 TD 25 1011 -1 23 303
1980245N16322 1980 69 NA NA GEORGES 1980-09-03 21:00:00 TS 20.3501 -60.0597 main 618 562 P_____________ AL091980 20.3501 -60.0597 TD 22 1011 -1 23 305
1980245N16322 1980 69 NA NA GEORGES 1980-09-04 00:00:00 TS 21.0000 -61.0000 20 1012 hurdat_atl main 562 535 O_____________ hurdat_atl AL091980 21.0000 -61.0000 TD 20 1012 -1 20 308
1980245N16322 1980 69 NA NA GEORGES 1980-09-04 03:00:00 TS 21.5490 -61.7040 main 535 534 P_____________ AL091980 21.5490 -61.7040 TD 20 1012 -1 16 312
1980245N16322 1980 69 NA NA GEORGES 1980-09-04 06:00:00 NR 22.1000 -62.3000 20 1012 hurdat_atl main 538 536 O_____________ hurdat_atl AL091980 22.1000 -62.3000 DB 20 1012 -3 17 315
1980245N16322 1980 69 NA NA GEORGES 1980-09-04 09:00:00 NR 22.7273 -62.9579 main 551 551 P_____________ AL091980 22.7273 -62.9579 DB 20 1012 -3 18 317
1980245N16322 1980 69 NA NA GEORGES 1980-09-04 12:00:00 NR 23.4000 -63.6000 20 1013 hurdat_atl main 596 596 O_____________ hurdat_atl AL091980 23.4000 -63.6000 DB 20 1013 -3 18 320
1980245N16322 1980 69 NA NA GEORGES 1980-09-04 15:00:00 NR 24.0998 -64.2228 main 653 651 P_____________ AL091980 24.0998 -64.2228 DB 20 1013 -3 18 322
1980245N16322 1980 69 NA NA GEORGES 1980-09-04 18:00:00 NR 24.8000 -64.8000 20 1013 hurdat_atl main 720 720 O_____________ hurdat_atl AL091980 24.8000 -64.8000 DB 20 1013 -3 17 324
1980245N16322 1980 69 NA NA GEORGES 1980-09-04 21:00:00 NR 25.4495 -65.3012 main 783 783 P_____________ AL091980 25.4495 -65.3012 DB 20 1013 -3 16 325
1980245N16322 1980 69 NA NA GEORGES 1980-09-05 00:00:00 NR 26.1000 -65.8000 20 1014 hurdat_atl main 840 840 O_____________ hurdat_atl AL091980 26.1000 -65.8000 DB 20 1014 -3 17 325
1980245N16322 1980 69 NA NA GEORGES 1980-09-05 03:00:00 NR 26.8220 -66.3553 main 884 884 P_____________ AL091980 26.8220 -66.3553 DB 20 1014 -3 18 323
1980245N16322 1980 69 NA NA GEORGES 1980-09-05 06:00:00 NR 27.5000 -67.0000 20 1014 hurdat_atl main 929 923 O_____________ hurdat_atl AL091980 27.5000 -67.0000 DB 20 1014 -3 18 314
1980245N16322 1980 69 NA NA GEORGES 1980-09-05 09:00:00 NR 28.0683 -67.8294 main 932 923 P_____________ AL091980 28.0683 -67.8294 DB 22 1014 -3 17 305
1980245N16322 1980 69 NA NA GEORGES 1980-09-05 12:00:00 SS 28.5000 -68.6000 25 1014 hurdat_atl main 928 923 O_____________ hurdat_atl AL091980 28.5000 -68.6000 SD 25 1014 -2 13 303
1980245N16322 1980 69 NA NA GEORGES 1980-09-05 15:00:00 SS 28.7718 -69.0763 main 935 922 P_____________ AL091980 28.7718 -69.0763 SD 27 1013 -2 9 305
1980245N16322 1980 69 NA NA GEORGES 1980-09-05 18:00:00 SS 29.0000 -69.4000 30 1013 hurdat_atl main 922 878 O_____________ hurdat_atl AL091980 29.0000 -69.4000 SD 30 1013 -2 8 313
1980245N16322 1980 69 NA NA GEORGES 1980-09-05 21:00:00 SS 29.3200 -69.7598 main 871 826 P_____________ AL091980 29.3200 -69.7598 SD 30 1013 -2 9 323
1980245N16322 1980 69 NA NA GEORGES 1980-09-06 00:00:00 SS 29.7000 -70.0000 30 1013 hurdat_atl main 826 788 O_____________ hurdat_atl AL091980 29.7000 -70.0000 SD 30 1013 -2 8 341
1980245N16322 1980 69 NA NA GEORGES 1980-09-06 03:00:00 SS 30.1198 -70.0750 main 788 758 P_____________ AL091980 30.1198 -70.0750 SD 30 1011 -2 9 0
1980245N16322 1980 69 NA NA GEORGES 1980-09-06 06:00:00 SS 30.6000 -70.0000 30 1010 hurdat_atl main 758 730 O_____________ hurdat_atl AL091980 30.6000 -70.0000 SD 30 1010 -2 10 12
1980245N16322 1980 69 NA NA GEORGES 1980-09-06 09:00:00 SS 31.1275 -69.8376 main 738 710 P_____________ AL091980 31.1275 -69.8376 SD 30 1009 -2 12 17
1980245N16322 1980 69 NA NA GEORGES 1980-09-06 12:00:00 SS 31.7000 -69.6000 30 1008 hurdat_atl main 710 689 O_____________ hurdat_atl AL091980 31.7000 -69.6000 SD 30 1008 -2 12 18
1980245N16322 1980 69 NA NA GEORGES 1980-09-06 15:00:00 SS 32.2695 -69.4084 main 682 667 P_____________ AL091980 32.2695 -69.4084 SD 30 1007 -2 13 19
1980245N16322 1980 69 NA NA GEORGES 1980-09-06 18:00:00 SS 32.9000 -69.1000 30 1007 hurdat_atl main 669 663 O_____________ hurdat_atl AL091980 32.9000 -69.1000 SD 30 1007 -2 15 26
1980245N16322 1980 69 NA NA GEORGES 1980-09-06 21:00:00 SS 33.6268 -68.6114 main 675 670 P_____________ AL091980 33.6268 -68.6114 SD 35 1005 -2 18 34
1980245N16322 1980 69 NA NA GEORGES 1980-09-07 00:00:00 TS 34.4000 -67.9000 40 1004 hurdat_atl main 707 707 O_____________ hurdat_atl AL091980 34.4000 -67.9000 TS 40 1004 0 20 41
1980245N16322 1980 69 NA NA GEORGES 1980-09-07 03:00:00 TS 35.1576 -66.9746 main 769 732 P_____________ AL091980 35.1576 -66.9746 TS 42 1003 0 22 47
1980245N16322 1980 69 NA NA GEORGES 1980-09-07 06:00:00 TS 35.9000 -65.9000 45 1002 hurdat_atl main 736 715 O_____________ hurdat_atl AL091980 35.9000 -65.9000 TS 45 1002 0 23 50
1980245N16322 1980 69 NA NA GEORGES 1980-09-07 09:00:00 TS 36.6144 -64.8134 main 722 701 P_____________ AL091980 36.6144 -64.8134 TS 47 1001 0 23 52
1980245N16322 1980 69 NA NA GEORGES 1980-09-07 12:00:00 TS 37.3000 -63.7000 50 1000 hurdat_atl main 702 660 O_____________ hurdat_atl AL091980 37.3000 -63.7000 TS 50 1000 0 22 53
1980245N16322 1980 69 NA NA GEORGES 1980-09-07 15:00:00 TS 37.9333 -62.6185 main 663 626 P_____________ AL091980 37.9333 -62.6185 TS 52 998 0 22 53
1980245N16322 1980 69 NA NA GEORGES 1980-09-07 18:00:00 TS 38.6000 -61.5000 55 997 hurdat_atl main 630 617 O_____________ hurdat_atl AL091980 38.6000 -61.5000 TS 55 997 0 22 52
1980245N16322 1980 69 NA NA GEORGES 1980-09-07 21:00:00 TS 39.2907 -60.3658 main 619 587 P_____________ AL091980 39.2907 -60.3658 TS 62 995 0 25 50
1980245N16322 1980 69 NA NA GEORGES 1980-09-08 00:00:00 TS 40.2000 -59.0000 70 993 hurdat_atl main 581 521 O_____________ hurdat_atl AL091980 40.2000 -59.0000 HU 70 993 1 33 48
1980245N16322 1980 69 NA NA GEORGES 1980-09-08 03:00:00 TS 41.4691 -57.1649 main 517 440 P_____________ AL091980 41.4691 -57.1649 HU 70 993 1 40 47
1980245N16322 1980 69 NA NA GEORGES 1980-09-08 06:00:00 TS 42.9000 -55.1000 70 993 hurdat_atl main 427 266 O_____________ hurdat_atl AL091980 42.9000 -55.1000 HU 70 993 1 41 47
1980245N16322 1980 69 NA NA GEORGES 1980-09-08 09:00:00 TS 44.2686 -53.1153 main 255 189 P_____________ AL091980 44.2686 -53.1153 HU 70 993 1 39 47
1980245N16322 1980 69 NA NA GEORGES 1980-09-08 12:00:00 TS 45.6000 -51.1000 70 993 hurdat_atl main 195 195 O_____________ hurdat_atl AL091980 45.6000 -51.1000 HU 70 993 1 38 48
1980245N16322 1980 69 NA NA GEORGES 1980-09-08 15:00:00 TS 46.8378 -49.0351 main 281 281 P_____________ AL091980 46.8378 -49.0351 HU 67 993 1 37 50
1980245N16322 1980 69 NA NA GEORGES 1980-09-08 18:00:00 TS 48.0000 -46.9000 65 993 hurdat_atl main 427 O_____________ hurdat_atl AL091980 48.0000 -46.9000 HU 65 993 1 37 51

IBTrACS Databaseについて

本データベースは、米国NOAAが公開する1842年以降の世界の熱帯低気圧のベストトラックデータアーカイブInternational Best Track Archive for Climate Stewardship (IBTrACS)を、ウェブで閲覧しやすい形式に変換したものです。

最終更新日:2021-10-08